sensor_id;sensor_type;location;lat;lon;timestamp;temperature;humidity
74811;DHT22;63340;48.404;-4.506;2023-02-26T00:01:41;11.00;51.49
74811;DHT22;63340;48.404;-4.506;2023-02-26T00:04:07;11.01;51.67
74811;DHT22;63340;48.404;-4.506;2023-02-26T00:06:36;11.03;51.55
74811;DHT22;63340;48.404;-4.506;2023-02-26T00:09:03;11.00;51.49
74811;DHT22;63340;48.404;-4.506;2023-02-26T00:11:30;11.01;51.60
74811;DHT22;63340;48.404;-4.506;2023-02-26T00:13:56;11.06;51.75
74811;DHT22;63340;48.404;-4.506;2023-02-26T00:18:52;11.14;51.21
74811;DHT22;63340;48.404;-4.506;2023-02-26T00:21:21;11.17;51.02
74811;DHT22;63340;48.404;-4.506;2023-02-26T00:23:47;11.18;50.97
74811;DHT22;63340;48.404;-4.506;2023-02-26T00:26:13;11.20;51.04
74811;DHT22;63340;48.404;-4.506;2023-02-26T00:28:38;11.20;50.72
74811;DHT22;63340;48.404;-4.506;2023-02-26T00:31:04;11.17;50.75
74811;DHT22;63340;48.404;-4.506;2023-02-26T00:33:30;11.15;50.69
74811;DHT22;63340;48.404;-4.506;2023-02-26T00:36:13;11.15;51.02
74811;DHT22;63340;48.404;-4.506;2023-02-26T00:38:42;11.13;50.95
74811;DHT22;63340;48.404;-4.506;2023-02-26T00:41:09;11.13;51.04
74811;DHT22;63340;48.404;-4.506;2023-02-26T00:43:35;11.15;50.76
74811;DHT22;63340;48.404;-4.506;2023-02-26T00:48:43;11.14;50.88
74811;DHT22;63340;48.404;-4.506;2023-02-26T00:51:29;11.11;50.97
74811;DHT22;63340;48.404;-4.506;2023-02-26T00:56:29;11.14;51.08
74811;DHT22;63340;48.404;-4.506;2023-02-26T00:58:55;11.14;50.99
74811;DHT22;63340;48.404;-4.506;2023-02-26T01:01:22;11.13;50.92
74811;DHT22;63340;48.404;-4.506;2023-02-26T01:03:47;11.13;51.16
74811;DHT22;63340;48.404;-4.506;2023-02-26T01:06:16;11.10;51.20
74811;DHT22;63340;48.404;-4.506;2023-02-26T01:08:57;11.04;51.41
74811;DHT22;63340;48.404;-4.506;2023-02-26T01:11:24;11.00;51.45
74811;DHT22;63340;48.404;-4.506;2023-02-26T01:13:50;10.94;51.90
74811;DHT22;63340;48.404;-4.506;2023-02-26T01:16:20;10.90;51.91
74811;DHT22;63340;48.404;-4.506;2023-02-26T01:18:55;10.85;52.07
74811;DHT22;63340;48.404;-4.506;2023-02-26T01:21:30;10.83;52.09
74811;DHT22;63340;48.404;-4.506;2023-02-26T01:23:58;10.79;52.27
74811;DHT22;63340;48.404;-4.506;2023-02-26T01:26:27;10.74;52.38
74811;DHT22;63340;48.404;-4.506;2023-02-26T01:28:53;10.73;52.49
74811;DHT22;63340;48.404;-4.506;2023-02-26T01:34:02;10.76;52.38
74811;DHT22;63340;48.404;-4.506;2023-02-26T01:36:33;10.76;52.54
74811;DHT22;63340;48.404;-4.506;2023-02-26T01:39:10;10.73;52.51
74811;DHT22;63340;48.404;-4.506;2023-02-26T01:41:42;10.73;52.50
74811;DHT22;63340;48.404;-4.506;2023-02-26T01:44:18;10.67;52.67
74811;DHT22;63340;48.404;-4.506;2023-02-26T01:49:21;10.65;52.69
74811;DHT22;63340;48.404;-4.506;2023-02-26T01:51:52;10.60;52.91
74811;DHT22;63340;48.404;-4.506;2023-02-26T01:54:23;10.57;52.87
74811;DHT22;63340;48.404;-4.506;2023-02-26T01:56:54;10.53;53.02
74811;DHT22;63340;48.404;-4.506;2023-02-26T01:59:20;10.53;53.14
74811;DHT22;63340;48.404;-4.506;2023-02-26T02:01:53;10.53;53.01
74811;DHT22;63340;48.404;-4.506;2023-02-26T02:04:21;10.48;52.78
74811;DHT22;63340;48.404;-4.506;2023-02-26T02:06:48;10.45;52.53
74811;DHT22;63340;48.404;-4.506;2023-02-26T02:09:14;10.38;52.94
74811;DHT22;63340;48.404;-4.506;2023-02-26T02:11:51;10.41;52.84
74811;DHT22;63340;48.404;-4.506;2023-02-26T02:14:23;10.38;53.41
74811;DHT22;63340;48.404;-4.506;2023-02-26T02:17:18;10.29;53.26
74811;DHT22;63340;48.404;-4.506;2023-02-26T02:25:48;10.24;53.38
74811;DHT22;63340;48.404;-4.506;2023-02-26T02:31:27;10.15;53.65
74811;DHT22;63340;48.404;-4.506;2023-02-26T02:34:16;10.18;53.59
74811;DHT22;63340;48.404;-4.506;2023-02-26T02:39:15;10.21;53.61
74811;DHT22;63340;48.404;-4.506;2023-02-26T02:41:49;10.22;53.78
74811;DHT22;63340;48.404;-4.506;2023-02-26T02:44:17;10.21;53.76
74811;DHT22;63340;48.404;-4.506;2023-02-26T02:46:46;10.22;53.61
74811;DHT22;63340;48.404;-4.506;2023-02-26T02:49:35;10.25;53.45
74811;DHT22;63340;48.404;-4.506;2023-02-26T02:52:07;10.25;53.56
74811;DHT22;63340;48.404;-4.506;2023-02-26T02:54:50;10.28;53.58
74811;DHT22;63340;48.404;-4.506;2023-02-26T02:57:29;10.31;53.56
74811;DHT22;63340;48.404;-4.506;2023-02-26T03:00:00;10.34;53.57
74811;DHT22;63340;48.404;-4.506;2023-02-26T03:02:45;10.35;53.51
74811;DHT22;63340;48.404;-4.506;2023-02-26T03:05:13;10.38;53.51
74811;DHT22;63340;48.404;-4.506;2023-02-26T03:07:44;10.39;53.41
74811;DHT22;63340;48.404;-4.506;2023-02-26T03:10:10;10.39;53.42
74811;DHT22;63340;48.404;-4.506;2023-02-26T03:12:36;10.42;53.47
74811;DHT22;63340;48.404;-4.506;2023-02-26T03:15:03;10.44;53.43
74811;DHT22;63340;48.404;-4.506;2023-02-26T03:17:40;10.42;53.77
74811;DHT22;63340;48.404;-4.506;2023-02-26T03:20:23;10.44;53.32
74811;DHT22;63340;48.404;-4.506;2023-02-26T03:23:11;10.46;53.22
74811;DHT22;63340;48.404;-4.506;2023-02-26T03:26:07;10.41;53.51
74811;DHT22;63340;48.404;-4.506;2023-02-26T03:28:45;10.36;53.49
74811;DHT22;63340;48.404;-4.506;2023-02-26T03:31:25;10.41;53.22
74811;DHT22;63340;48.404;-4.506;2023-02-26T03:36:34;10.36;53.38
74811;DHT22;63340;48.404;-4.506;2023-02-26T03:39:10;10.35;53.47
74811;DHT22;63340;48.404;-4.506;2023-02-26T03:41:44;10.35;53.55
74811;DHT22;63340;48.404;-4.506;2023-02-26T03:44:25;10.38;53.52
74811;DHT22;63340;48.404;-4.506;2023-02-26T03:47:05;10.38;53.58
74811;DHT22;63340;48.404;-4.506;2023-02-26T03:50:09;10.41;53.54
74811;DHT22;63340;48.404;-4.506;2023-02-26T03:52:37;10.41;53.67
74811;DHT22;63340;48.404;-4.506;2023-02-26T03:55:25;10.39;53.61
74811;DHT22;63340;48.404;-4.506;2023-02-26T03:57:52;10.38;53.67
74811;DHT22;63340;48.404;-4.506;2023-02-26T04:00:19;10.36;53.53
74811;DHT22;63340;48.404;-4.506;2023-02-26T04:02:59;10.36;53.79
74811;DHT22;63340;48.404;-4.506;2023-02-26T04:05:32;10.34;53.86
74811;DHT22;63340;48.404;-4.506;2023-02-26T04:07:59;10.31;53.88
74811;DHT22;63340;48.404;-4.506;2023-02-26T04:10:58;10.29;53.86
74811;DHT22;63340;48.404;-4.506;2023-02-26T04:13:25;10.29;54.09
74811;DHT22;63340;48.404;-4.506;2023-02-26T04:15:50;10.29;53.98
74811;DHT22;63340;48.404;-4.506;2023-02-26T04:18:16;10.29;53.85
74811;DHT22;63340;48.404;-4.506;2023-02-26T04:20:42;10.28;54.05
74811;DHT22;63340;48.404;-4.506;2023-02-26T04:23:07;10.26;54.01
74811;DHT22;63340;48.404;-4.506;2023-02-26T04:25:33;10.24;54.07
74811;DHT22;63340;48.404;-4.506;2023-02-26T04:27:58;10.24;54.09
74811;DHT22;63340;48.404;-4.506;2023-02-26T04:30:24;10.22;54.11
74811;DHT22;63340;48.404;-4.506;2023-02-26T04:32:49;10.19;54.23
74811;DHT22;63340;48.404;-4.506;2023-02-26T04:35:15;10.18;54.24
74811;DHT22;63340;48.404;-4.506;2023-02-26T04:37:41;10.17;54.38
74811;DHT22;63340;48.404;-4.506;2023-02-26T04:40:06;10.17;54.14
74811;DHT22;63340;48.404;-4.506;2023-02-26T04:42:32;10.18;54.22
74811;DHT22;63340;48.404;-4.506;2023-02-26T04:44:58;10.17;53.95
74811;DHT22;63340;48.404;-4.506;2023-02-26T04:47:23;10.14;54.40
74811;DHT22;63340;48.404;-4.506;2023-02-26T04:49:49;10.11;54.37
74811;DHT22;63340;48.404;-4.506;2023-02-26T04:52:14;10.09;54.35
74811;DHT22;63340;48.404;-4.506;2023-02-26T04:54:40;10.08;54.55
74811;DHT22;63340;48.404;-4.506;2023-02-26T04:57:06;10.08;54.53
74811;DHT22;63340;48.404;-4.506;2023-02-26T04:59:31;10.11;54.52
74811;DHT22;63340;48.404;-4.506;2023-02-26T05:01:57;10.07;54.69
74811;DHT22;63340;48.404;-4.506;2023-02-26T05:04:23;10.02;54.97
74811;DHT22;63340;48.404;-4.506;2023-02-26T05:06:48;9.98;55.02
74811;DHT22;63340;48.404;-4.506;2023-02-26T05:09:14;9.99;55.34
74811;DHT22;63340;48.404;-4.506;2023-02-26T05:11:39;9.97;55.59
74811;DHT22;63340;48.404;-4.506;2023-02-26T05:14:05;9.93;55.25
74811;DHT22;63340;48.404;-4.506;2023-02-26T05:16:31;9.86;55.59
74811;DHT22;63340;48.404;-4.506;2023-02-26T05:18:59;9.86;55.78
74811;DHT22;63340;48.404;-4.506;2023-02-26T05:21:25;9.83;55.86
74811;DHT22;63340;48.404;-4.506;2023-02-26T05:23:50;9.80;55.90
74811;DHT22;63340;48.404;-4.506;2023-02-26T05:26:16;9.80;55.95
74811;DHT22;63340;48.404;-4.506;2023-02-26T05:28:42;9.80;55.93
74811;DHT22;63340;48.404;-4.506;2023-02-26T05:31:10;9.80;55.94
74811;DHT22;63340;48.404;-4.506;2023-02-26T05:33:36;9.77;56.03
74811;DHT22;63340;48.404;-4.506;2023-02-26T05:36:01;9.76;56.06
74811;DHT22;63340;48.404;-4.506;2023-02-26T05:38:27;9.69;56.37
74811;DHT22;63340;48.404;-4.506;2023-02-26T05:40:55;9.63;56.53
74811;DHT22;63340;48.404;-4.506;2023-02-26T05:43:21;9.63;56.79
74811;DHT22;63340;48.404;-4.506;2023-02-26T05:45:49;9.64;56.83
74811;DHT22;63340;48.404;-4.506;2023-02-26T05:48:14;9.59;56.98
74811;DHT22;63340;48.404;-4.506;2023-02-26T05:50:40;9.59;57.09
74811;DHT22;63340;48.404;-4.506;2023-02-26T05:53:05;9.57;57.26
74811;DHT22;63340;48.404;-4.506;2023-02-26T05:55:31;9.57;57.18
74811;DHT22;63340;48.404;-4.506;2023-02-26T05:57:57;9.59;57.51
74811;DHT22;63340;48.404;-4.506;2023-02-26T06:00:22;9.56;57.36
74811;DHT22;63340;48.404;-4.506;2023-02-26T06:02:48;9.54;57.13
74811;DHT22;63340;48.404;-4.506;2023-02-26T06:05:14;9.54;57.82
74811;DHT22;63340;48.404;-4.506;2023-02-26T06:07:39;9.47;57.43
74811;DHT22;63340;48.404;-4.506;2023-02-26T06:10:06;9.47;57.75
74811;DHT22;63340;48.404;-4.506;2023-02-26T06:12:33;9.47;57.71
74811;DHT22;63340;48.404;-4.506;2023-02-26T06:14:59;9.46;58.11
74811;DHT22;63340;48.404;-4.506;2023-02-26T06:17:25;9.44;58.32
74811;DHT22;63340;48.404;-4.506;2023-02-26T06:19:51;9.49;58.02
74811;DHT22;63340;48.404;-4.506;2023-02-26T06:22:17;9.46;57.98
74811;DHT22;63340;48.404;-4.506;2023-02-26T06:24:43;9.50;58.02
74811;DHT22;63340;48.404;-4.506;2023-02-26T06:27:08;9.54;57.76
74811;DHT22;63340;48.404;-4.506;2023-02-26T06:29:34;9.56;57.74
74811;DHT22;63340;48.404;-4.506;2023-02-26T06:32:02;9.51;57.76
74811;DHT22;63340;48.404;-4.506;2023-02-26T06:34:27;9.51;57.85
74811;DHT22;63340;48.404;-4.506;2023-02-26T06:36:53;9.50;57.78
74811;DHT22;63340;48.404;-4.506;2023-02-26T06:39:18;9.51;57.78
74811;DHT22;63340;48.404;-4.506;2023-02-26T06:41:44;9.51;57.69
74811;DHT22;63340;48.404;-4.506;2023-02-26T06:44:10;9.51;57.35
74811;DHT22;63340;48.404;-4.506;2023-02-26T06:46:36;9.54;57.23
74811;DHT22;63340;48.404;-4.506;2023-02-26T06:49:02;9.57;57.42
74811;DHT22;63340;48.404;-4.506;2023-02-26T06:51:28;9.57;57.26
74811;DHT22;63340;48.404;-4.506;2023-02-26T06:53:55;9.57;57.26
74811;DHT22;63340;48.404;-4.506;2023-02-26T06:56:21;9.60;57.39
74811;DHT22;63340;48.404;-4.506;2023-02-26T06:58:47;9.57;57.10
74811;DHT22;63340;48.404;-4.506;2023-02-26T07:01:12;9.53;57.34
74811;DHT22;63340;48.404;-4.506;2023-02-26T07:03:38;9.57;57.20
74811;DHT22;63340;48.404;-4.506;2023-02-26T07:06:05;9.60;57.29
74811;DHT22;63340;48.404;-4.506;2023-02-26T07:08:32;9.59;57.54
74811;DHT22;63340;48.404;-4.506;2023-02-26T07:10:58;9.59;57.41
74811;DHT22;63340;48.404;-4.506;2023-02-26T07:13:23;9.60;57.32
74811;DHT22;63340;48.404;-4.506;2023-02-26T07:15:49;9.60;57.47
74811;DHT22;63340;48.404;-4.506;2023-02-26T07:18:14;9.63;57.05
74811;DHT22;63340;48.404;-4.506;2023-02-26T07:20:41;9.66;57.40
74811;DHT22;63340;48.404;-4.506;2023-02-26T07:23:07;9.64;57.22
74811;DHT22;63340;48.404;-4.506;2023-02-26T07:25:32;9.66;57.16
74811;DHT22;63340;48.404;-4.506;2023-02-26T07:27:58;9.66;56.93
74811;DHT22;63340;48.404;-4.506;2023-02-26T07:30:24;9.64;56.86
74811;DHT22;63340;48.404;-4.506;2023-02-26T07:32:50;9.70;56.68
74811;DHT22;63340;48.404;-4.506;2023-02-26T07:35:16;9.69;56.46
74811;DHT22;63340;48.404;-4.506;2023-02-26T07:37:41;9.66;56.31
74811;DHT22;63340;48.404;-4.506;2023-02-26T07:40:07;9.67;56.18
74811;DHT22;63340;48.404;-4.506;2023-02-26T07:42:33;9.69;56.29
74811;DHT22;63340;48.404;-4.506;2023-02-26T07:45:02;9.69;56.29
74811;DHT22;63340;48.404;-4.506;2023-02-26T07:47:28;9.70;56.00
74811;DHT22;63340;48.404;-4.506;2023-02-26T07:49:55;9.71;56.06
74811;DHT22;63340;48.404;-4.506;2023-02-26T07:52:21;9.76;55.75
74811;DHT22;63340;48.404;-4.506;2023-02-26T07:54:47;9.80;55.58
74811;DHT22;63340;48.404;-4.506;2023-02-26T07:57:12;9.83;55.58
74811;DHT22;63340;48.404;-4.506;2023-02-26T07:59:38;9.91;55.32
74811;DHT22;63340;48.404;-4.506;2023-02-26T08:02:04;9.94;55.23
74811;DHT22;63340;48.404;-4.506;2023-02-26T08:04:29;9.97;55.07
74811;DHT22;63340;48.404;-4.506;2023-02-26T08:06:58;9.98;55.06
74811;DHT22;63340;48.404;-4.506;2023-02-26T08:09:23;10.02;54.84
74811;DHT22;63340;48.404;-4.506;2023-02-26T08:11:50;10.02;54.51
74811;DHT22;63340;48.404;-4.506;2023-02-26T08:14:15;10.04;54.50
74811;DHT22;63340;48.404;-4.506;2023-02-26T08:16:41;10.04;54.34
74811;DHT22;63340;48.404;-4.506;2023-02-26T08:19:06;10.07;54.11
74811;DHT22;63340;48.404;-4.506;2023-02-26T08:21:32;10.12;53.62
74811;DHT22;63340;48.404;-4.506;2023-02-26T08:23:57;10.12;53.19
74811;DHT22;63340;48.404;-4.506;2023-02-26T08:26:23;10.12;53.13
74811;DHT22;63340;48.404;-4.506;2023-02-26T08:28:48;10.15;53.59
74811;DHT22;63340;48.404;-4.506;2023-02-26T08:31:14;10.21;52.98
74811;DHT22;63340;48.404;-4.506;2023-02-26T08:33:40;10.24;52.84
74811;DHT22;63340;48.404;-4.506;2023-02-26T08:36:06;10.26;53.27
74811;DHT22;63340;48.404;-4.506;2023-02-26T08:38:32;10.29;53.09
74811;DHT22;63340;48.404;-4.506;2023-02-26T08:40:57;10.35;52.84
74811;DHT22;63340;48.404;-4.506;2023-02-26T08:43:23;10.36;52.83
74811;DHT22;63340;48.404;-4.506;2023-02-26T08:45:51;10.38;52.52
74811;DHT22;63340;48.404;-4.506;2023-02-26T08:48:17;10.42;52.76
74811;DHT22;63340;48.404;-4.506;2023-02-26T08:50:42;10.48;51.78
74811;DHT22;63340;48.404;-4.506;2023-02-26T08:53:08;10.50;52.33
74811;DHT22;63340;48.404;-4.506;2023-02-26T08:55:34;10.49;51.66
74811;DHT22;63340;48.404;-4.506;2023-02-26T08:57:59;10.55;52.40
74811;DHT22;63340;48.404;-4.506;2023-02-26T09:00:25;10.56;51.80
74811;DHT22;63340;48.404;-4.506;2023-02-26T09:02:50;10.60;52.16
74811;DHT22;63340;48.404;-4.506;2023-02-26T09:05:16;10.65;51.66
74811;DHT22;63340;48.404;-4.506;2023-02-26T09:07:42;10.69;51.39
74811;DHT22;63340;48.404;-4.506;2023-02-26T09:10:09;10.66;50.21
74811;DHT22;63340;48.404;-4.506;2023-02-26T09:12:35;10.63;50.49
74811;DHT22;63340;48.404;-4.506;2023-02-26T09:15:05;10.63;50.72
74811;DHT22;63340;48.404;-4.506;2023-02-26T09:17:31;10.66;50.44
74811;DHT22;63340;48.404;-4.506;2023-02-26T09:19:57;10.66;50.58
74811;DHT22;63340;48.404;-4.506;2023-02-26T09:22:22;10.67;49.72
74811;DHT22;63340;48.404;-4.506;2023-02-26T09:24:48;10.70;50.58
74811;DHT22;63340;48.404;-4.506;2023-02-26T09:27:13;10.76;50.72
74811;DHT22;63340;48.404;-4.506;2023-02-26T09:29:39;10.79;49.65
74811;DHT22;63340;48.404;-4.506;2023-02-26T09:32:04;10.85;49.81
74811;DHT22;63340;48.404;-4.506;2023-02-26T09:34:33;10.80;49.18
74811;DHT22;63340;48.404;-4.506;2023-02-26T09:36:59;10.85;49.30
74811;DHT22;63340;48.404;-4.506;2023-02-26T09:39:25;10.85;49.48
74811;DHT22;63340;48.404;-4.506;2023-02-26T09:41:53;10.87;49.31
74811;DHT22;63340;48.404;-4.506;2023-02-26T09:47:04;10.93;50.40
74811;DHT22;63340;48.404;-4.506;2023-02-26T09:52:26;11.04;49.52
74811;DHT22;63340;48.404;-4.506;2023-02-26T09:54:58;11.08;49.21
74811;DHT22;63340;48.404;-4.506;2023-02-26T09:57:31;11.11;49.49
74811;DHT22;63340;48.404;-4.506;2023-02-26T09:59:57;11.20;49.33
74811;DHT22;63340;48.404;-4.506;2023-02-26T10:05:28;11.38;49.28
74811;DHT22;63340;48.404;-4.506;2023-02-26T10:08:16;11.42;49.42
74811;DHT22;63340;48.404;-4.506;2023-02-26T10:11:03;11.46;48.83
74811;DHT22;63340;48.404;-4.506;2023-02-26T10:13:51;11.46;49.06
74811;DHT22;63340;48.404;-4.506;2023-02-26T10:16:20;11.49;47.94
74811;DHT22;63340;48.404;-4.506;2023-02-26T10:19:06;11.52;49.28
74811;DHT22;63340;48.404;-4.506;2023-02-26T10:21:44;11.55;48.15
74811;DHT22;63340;48.404;-4.506;2023-02-26T10:24:25;11.65;48.90
74811;DHT22;63340;48.404;-4.506;2023-02-26T10:27:05;11.69;48.57
74811;DHT22;63340;48.404;-4.506;2023-02-26T10:29:44;11.70;47.71
74811;DHT22;63340;48.404;-4.506;2023-02-26T10:32:29;11.73;48.57
74811;DHT22;63340;48.404;-4.506;2023-02-26T10:35:00;11.79;48.15
74811;DHT22;63340;48.404;-4.506;2023-02-26T10:40:41;12.07;47.82
74811;DHT22;63340;48.404;-4.506;2023-02-26T10:49:25;12.55;48.03
74811;DHT22;63340;48.404;-4.506;2023-02-26T10:51:55;12.62;46.53
74811;DHT22;63340;48.404;-4.506;2023-02-26T10:54:34;12.76;46.89
74811;DHT22;63340;48.404;-4.506;2023-02-26T10:57:01;12.93;46.61
74811;DHT22;63340;48.404;-4.506;2023-02-26T10:59:28;12.96;46.08
74811;DHT22;63340;48.404;-4.506;2023-02-26T11:01:54;12.85;45.86
74811;DHT22;63340;48.404;-4.506;2023-02-26T11:04:22;12.75;45.26
74811;DHT22;63340;48.404;-4.506;2023-02-26T11:06:55;12.66;46.05
74811;DHT22;63340;48.404;-4.506;2023-02-26T11:09:24;12.66;46.26
74811;DHT22;63340;48.404;-4.506;2023-02-26T11:14:18;12.54;46.58
74811;DHT22;63340;48.404;-4.506;2023-02-26T11:17:00;12.49;46.91
74811;DHT22;63340;48.404;-4.506;2023-02-26T11:19:36;12.41;46.78
74811;DHT22;63340;48.404;-4.506;2023-02-26T11:22:04;12.38;46.92
74811;DHT22;63340;48.404;-4.506;2023-02-26T11:24:36;12.38;47.78
74811;DHT22;63340;48.404;-4.506;2023-02-26T11:27:13;12.41;47.54
74811;DHT22;63340;48.404;-4.506;2023-02-26T11:29:41;12.41;48.40
74811;DHT22;63340;48.404;-4.506;2023-02-26T11:32:16;12.27;49.55
74811;DHT22;63340;48.404;-4.506;2023-02-26T11:34:46;12.18;50.93
74811;DHT22;63340;48.404;-4.506;2023-02-26T11:37:18;12.09;51.95
74811;DHT22;63340;48.404;-4.506;2023-02-26T11:39:46;11.94;53.18
74811;DHT22;63340;48.404;-4.506;2023-02-26T11:42:11;11.86;53.90
74811;DHT22;63340;48.404;-4.506;2023-02-26T11:44:44;11.82;53.68
74811;DHT22;63340;48.404;-4.506;2023-02-26T11:47:18;11.76;55.03
74811;DHT22;63340;48.404;-4.506;2023-02-26T11:49:50;11.79;54.92
74811;DHT22;63340;48.404;-4.506;2023-02-26T11:52:28;11.90;54.69
74811;DHT22;63340;48.404;-4.506;2023-02-26T11:55:01;11.99;55.34
74811;DHT22;63340;48.404;-4.506;2023-02-26T11:57:29;12.14;54.96
74811;DHT22;63340;48.404;-4.506;2023-02-26T11:59:57;12.21;53.65
74811;DHT22;63340;48.404;-4.506;2023-02-26T12:02:25;12.36;53.78
74811;DHT22;63340;48.404;-4.506;2023-02-26T12:04:55;12.52;54.09
74811;DHT22;63340;48.404;-4.506;2023-02-26T12:07:21;12.62;51.78
74811;DHT22;63340;48.404;-4.506;2023-02-26T12:09:48;12.72;52.43
74811;DHT22;63340;48.404;-4.506;2023-02-26T12:12:23;12.89;51.88
74811;DHT22;63340;48.404;-4.506;2023-02-26T12:20:34;12.79;50.17
74811;DHT22;63340;48.404;-4.506;2023-02-26T12:25:56;12.66;48.30
74811;DHT22;63340;48.404;-4.506;2023-02-26T12:34:16;12.58;48.42
74811;DHT22;63340;48.404;-4.506;2023-02-26T12:43:09;12.47;47.07
74811;DHT22;63340;48.404;-4.506;2023-02-26T12:45:50;12.48;47.66
74811;DHT22;63340;48.404;-4.506;2023-02-26T13:01:30;12.36;48.78
74811;DHT22;63340;48.404;-4.506;2023-02-26T13:07:04;12.51;48.18
74811;DHT22;63340;48.404;-4.506;2023-02-26T13:13:01;12.66;48.05
74811;DHT22;63340;48.404;-4.506;2023-02-26T13:24:11;12.81;47.21
74811;DHT22;63340;48.404;-4.506;2023-02-26T13:26:39;12.84;46.16
74811;DHT22;63340;48.404;-4.506;2023-02-26T13:31:47;12.88;46.52
74811;DHT22;63340;48.404;-4.506;2023-02-26T13:34:34;12.96;46.21
74811;DHT22;63340;48.404;-4.506;2023-02-26T13:37:02;13.05;45.89
74811;DHT22;63340;48.404;-4.506;2023-02-26T13:45:13;13.28;46.45
74811;DHT22;63340;48.404;-4.506;2023-02-26T13:50:54;13.23;46.32
74811;DHT22;63340;48.404;-4.506;2023-02-26T13:55:54;13.07;46.45
74811;DHT22;63340;48.404;-4.506;2023-02-26T14:01:13;13.12;46.47
74811;DHT22;63340;48.404;-4.506;2023-02-26T14:04:03;13.13;46.05
74811;DHT22;63340;48.404;-4.506;2023-02-26T14:06:37;13.03;44.37
74811;DHT22;63340;48.404;-4.506;2023-02-26T14:12:03;13.03;45.98
74811;DHT22;63340;48.404;-4.506;2023-02-26T14:14:35;13.06;45.97
74811;DHT22;63340;48.404;-4.506;2023-02-26T14:19:44;13.07;46.88
74811;DHT22;63340;48.404;-4.506;2023-02-26T14:27:37;12.71;47.71
74811;DHT22;63340;48.404;-4.506;2023-02-26T14:35:24;12.37;45.52
74811;DHT22;63340;48.404;-4.506;2023-02-26T14:37:58;12.40;45.44
74811;DHT22;63340;48.404;-4.506;2023-02-26T14:40:29;12.41;46.02
74811;DHT22;63340;48.404;-4.506;2023-02-26T14:43:00;12.40;45.02
74811;DHT22;63340;48.404;-4.506;2023-02-26T14:45:31;12.40;45.82
74811;DHT22;63340;48.404;-4.506;2023-02-26T14:47:59;12.49;45.69
74811;DHT22;63340;48.404;-4.506;2023-02-26T14:50:32;12.61;45.91
74811;DHT22;63340;48.404;-4.506;2023-02-26T15:07:08;12.86;47.02
74811;DHT22;63340;48.404;-4.506;2023-02-26T15:23:29;12.48;44.20
74811;DHT22;63340;48.404;-4.506;2023-02-26T15:25:58;12.45;43.97
74811;DHT22;63340;48.404;-4.506;2023-02-26T15:28:27;12.44;44.25
74811;DHT22;63340;48.404;-4.506;2023-02-26T15:30:55;12.48;44.25
74811;DHT22;63340;48.404;-4.506;2023-02-26T15:33:23;12.58;44.15
74811;DHT22;63340;48.404;-4.506;2023-02-26T15:35:51;12.61;43.50
74811;DHT22;63340;48.404;-4.506;2023-02-26T15:38:18;12.65;42.63
74811;DHT22;63340;48.404;-4.506;2023-02-26T15:40:44;12.65;41.97
74811;DHT22;63340;48.404;-4.506;2023-02-26T15:43:14;12.65;43.00
74811;DHT22;63340;48.404;-4.506;2023-02-26T15:45:43;12.69;42.65
74811;DHT22;63340;48.404;-4.506;2023-02-26T15:48:20;12.65;42.46
74811;DHT22;63340;48.404;-4.506;2023-02-26T15:50:51;12.59;41.08
74811;DHT22;63340;48.404;-4.506;2023-02-26T15:56:35;12.65;42.43
74811;DHT22;63340;48.404;-4.506;2023-02-26T15:59:02;12.64;41.46
74811;DHT22;63340;48.404;-4.506;2023-02-26T16:01:31;12.59;42.06
74811;DHT22;63340;48.404;-4.506;2023-02-26T16:04:03;12.55;40.30
74811;DHT22;63340;48.404;-4.506;2023-02-26T16:06:39;12.45;39.70
74811;DHT22;63340;48.404;-4.506;2023-02-26T16:09:07;12.54;41.65
74811;DHT22;63340;48.404;-4.506;2023-02-26T16:11:36;12.49;39.83
74811;DHT22;63340;48.404;-4.506;2023-02-26T16:14:07;12.44;39.68
74811;DHT22;63340;48.404;-4.506;2023-02-26T16:16:42;12.47;39.74
74811;DHT22;63340;48.404;-4.506;2023-02-26T16:19:15;12.51;39.79
74811;DHT22;63340;48.404;-4.506;2023-02-26T16:21:42;12.54;40.05
74811;DHT22;63340;48.404;-4.506;2023-02-26T16:24:14;12.59;39.88
74811;DHT22;63340;48.404;-4.506;2023-02-26T16:26:45;12.71;40.14
74811;DHT22;63340;48.404;-4.506;2023-02-26T16:29:18;12.76;38.83
74811;DHT22;63340;48.404;-4.506;2023-02-26T16:32:01;12.71;36.98
74811;DHT22;63340;48.404;-4.506;2023-02-26T16:34:52;12.64;36.95
74811;DHT22;63340;48.404;-4.506;2023-02-26T16:40:32;12.45;35.66
74811;DHT22;63340;48.404;-4.506;2023-02-26T16:43:03;12.38;35.92
74811;DHT22;63340;48.404;-4.506;2023-02-26T16:45:55;12.21;33.64
74811;DHT22;63340;48.404;-4.506;2023-02-26T16:48:35;12.17;35.56
74811;DHT22;63340;48.404;-4.506;2023-02-26T16:51:19;12.17;35.36
74811;DHT22;63340;48.404;-4.506;2023-02-26T16:53:58;12.14;36.60
74811;DHT22;63340;48.404;-4.506;2023-02-26T16:56:33;12.16;35.92
74811;DHT22;63340;48.404;-4.506;2023-02-26T17:01:43;12.09;35.17
74811;DHT22;63340;48.404;-4.506;2023-02-26T17:04:17;12.07;35.07
74811;DHT22;63340;48.404;-4.506;2023-02-26T17:06:44;12.24;36.02
74811;DHT22;63340;48.404;-4.506;2023-02-26T17:09:38;12.51;37.41
74811;DHT22;63340;48.404;-4.506;2023-02-26T17:12:16;12.72;35.71
74811;DHT22;63340;48.404;-4.506;2023-02-26T17:14:53;12.92;36.00
74811;DHT22;63340;48.404;-4.506;2023-02-26T17:17:19;13.06;35.33
74811;DHT22;63340;48.404;-4.506;2023-02-26T17:19:44;13.27;35.06
74811;DHT22;63340;48.404;-4.506;2023-02-26T17:22:23;13.36;35.59
74811;DHT22;63340;48.404;-4.506;2023-02-26T17:24:50;13.34;35.33
74811;DHT22;63340;48.404;-4.506;2023-02-26T17:27:25;13.28;35.16
74811;DHT22;63340;48.404;-4.506;2023-02-26T17:29:56;13.22;35.50
74811;DHT22;63340;48.404;-4.506;2023-02-26T17:32:27;13.06;35.80
74811;DHT22;63340;48.404;-4.506;2023-02-26T17:34:57;12.82;35.67
74811;DHT22;63340;48.404;-4.506;2023-02-26T17:37:30;12.62;36.47
74811;DHT22;63340;48.404;-4.506;2023-02-26T17:39:57;12.47;36.33
74811;DHT22;63340;48.404;-4.506;2023-02-26T17:42:24;12.28;36.70
74811;DHT22;63340;48.404;-4.506;2023-02-26T17:44:49;12.10;37.24
74811;DHT22;63340;48.404;-4.506;2023-02-26T17:47:19;12.00;37.50
74811;DHT22;63340;48.404;-4.506;2023-02-26T17:49:45;11.87;38.21
74811;DHT22;63340;48.404;-4.506;2023-02-26T17:52:11;11.72;38.40
74811;DHT22;63340;48.404;-4.506;2023-02-26T17:54:37;11.66;38.71
74811;DHT22;63340;48.404;-4.506;2023-02-26T17:57:03;11.68;38.73
74811;DHT22;63340;48.404;-4.506;2023-02-26T17:59:29;11.58;39.15
74811;DHT22;63340;48.404;-4.506;2023-02-26T18:01:54;11.48;39.52
74811;DHT22;63340;48.404;-4.506;2023-02-26T18:04:20;11.35;39.71
74811;DHT22;63340;48.404;-4.506;2023-02-26T18:06:47;11.31;39.98
74811;DHT22;63340;48.404;-4.506;2023-02-26T18:09:13;11.28;40.21
74811;DHT22;63340;48.404;-4.506;2023-02-26T18:11:39;11.27;39.89
74811;DHT22;63340;48.404;-4.506;2023-02-26T18:14:07;11.18;40.19
74811;DHT22;63340;48.404;-4.506;2023-02-26T18:16:38;11.00;40.16
74811;DHT22;63340;48.404;-4.506;2023-02-26T18:19:04;10.93;40.82
74811;DHT22;63340;48.404;-4.506;2023-02-26T18:21:31;10.89;41.05
74811;DHT22;63340;48.404;-4.506;2023-02-26T18:23:57;10.83;40.73